Terminal Aerodrome Forecast
Issued by NWS

Home | Current Version | Previous Version | Text Only | Print | Product List | Glossary Off
Versions: 1 2 3 4 5 6 7 8 9 10 11 12 13 14 15 16 17 18 19 20 21 22 23 24 25 26

000
FTUS42 KMHX 020200 AAD
TAFPGV
TAF AMD
KPGV 020242Z 0203/0224 00000KT 3SM BR SCT250
      TEMPO 0203/0205 VV007
     FM020500 00000KT 1SM BR SCT003
      TEMPO 0208/0212 1/2SM FG BKN002
     FM021330 VRB03KT P6SM FEW010
     FM021700 VRB03KT P6SM SCT250
      AMD LTD TO CLD VIS AND WIND=

USA.gov is the U.S. government's official web portal to all federal, state and local government web resources and services.